RIPO2: Cimarron River Near Ripley, OK

Data processed at Sun Feb 25 2018 21:01


All information presented herein is the property of the government of the United States of America and may be revised or deleted at any time without prior notice.
Dissemination of this information without the expressed written consent of the Public Affairs Office, Tulsa District U.S. Army Corps of Engineers is strictly prohibited.
These data are gathered electronically and, as presented, have not undergone any form of quality control. These data are not guaranteed to be valid or correct.
Go to home page.
Go to station list.

Upstream stations:

Downstream station:
Previous Day
Next Day
Current Day
    
SHEF ID:       RIPO2     Cimarron River near Ripley, OK
STATION TYPE:  

               PRECIP     STAGE  RIV-FLOW  BAT-LOAD
                   in        ft       cfs      volt
              Ccp-Rev   Ccp-Rev   Ccp-Rev   Ccp-Rev
(US/Central)
02/25 00:00      0.00      9.38       999     12.57
02/25 01:00      0.00      9.34       964     12.57
02/25 02:00      0.00      9.29       921     12.57
02/25 03:00      0.00      9.26       896     12.49
02/25 04:00      0.00      9.23       872     12.49
02/25 05:00      0.00      9.20       847     12.49
02/25 06:00      0.00      9.17       824     12.49
02/25 07:00      0.00      9.14       801     12.41
02/25 08:00      0.00      9.12       785     12.41
02/25 09:00      0.00      9.10       770     12.81
02/25 10:00      0.00      9.08       755     13.60
02/25 11:00      0.00      9.06       740     13.92
02/25 12:00      0.00      9.02       711     13.84
02/25 13:00      0.00      9.02       711     13.84
02/25 14:00      0.00      9.00       697     13.84
02/25 15:00      0.00      9.01       704     14.00
02/25 16:00      0.00      9.01       704     13.92
02/25 17:00      0.00      9.05       733     13.68
02/25 18:00      0.00      9.06       740     13.68
02/25 19:00      0.00      9.07       748     13.44
02/25 20:00      0.00      9.08       755     12.97
02/25 21:00      ----      ----      ----      ----
02/25 22:00      ----      ----      ----      ----
02/25 23:00      ----      ----      ----      ----